createdAt,value
2019-01-18T00:09:35.749Z,60.86
2019-01-18T00:19:37.250Z,62.86
2019-01-18T00:29:38.748Z,63.54
2019-01-18T00:39:40.547Z,63.74
2019-01-18T00:49:42.056Z,63.64
2019-01-18T00:59:43.760Z,63.35
2019-01-18T01:09:45.465Z,63.90
2019-01-18T01:19:47.272Z,64.43
2019-01-18T01:29:48.770Z,65.53
2019-01-18T01:39:50.676Z,67.03
2019-01-18T01:49:52.149Z,68.48
2019-01-18T01:59:57.465Z,68.61
2019-01-18T02:09:59.376Z,67.54
2019-01-18T02:20:00.896Z,66.30
2019-01-18T02:30:22.651Z,66.34
2019-01-18T02:40:24.559Z,66.51
2019-01-18T02:50:26.057Z,66.16
2019-01-18T03:00:31.142Z,65.37
2019-01-18T03:10:33.500Z,64.27
2019-01-18T03:20:35.267Z,63.93
2019-01-18T03:30:36.762Z,63.29
2019-01-18T03:40:42.460Z,62.41
2019-01-18T03:50:43.957Z,63.00
2019-01-18T04:00:48.955Z,61.84
2019-01-18T04:10:50.544Z,61.61
2019-01-18T04:20:52.040Z,61.24
2019-01-18T04:30:53.642Z,62.70
2019-01-18T04:40:55.653Z,61.78
2019-01-18T04:50:57.252Z,62.99
2019-01-18T05:01:03.132Z,63.55
2019-01-18T05:11:04.798Z,64.84
2019-01-18T05:21:06.486Z,65.64
2019-01-18T05:31:08.064Z,65.56
2019-01-18T05:41:09.768Z,65.67
2019-01-18T05:51:11.265Z,65.61
2019-01-18T06:01:16.860Z,64.35
2019-01-18T06:11:18.564Z,63.51
2019-01-18T06:21:21.515Z,63.59
2019-01-18T06:31:23.305Z,63.52
2019-01-18T06:41:26.817Z,63.23
2019-01-18T06:51:28.374Z,63.85
2019-01-18T07:01:34.047Z,63.19
2019-01-18T07:11:35.854Z,63.08
2019-01-18T07:21:37.343Z,65.00
2019-01-18T07:31:38.957Z,71.08
2019-01-18T07:41:40.662Z,77.37
2019-01-18T07:51:42.162Z,78.32
2019-01-18T08:01:48.477Z,79.47
2019-01-18T08:11:50.177Z,80.31
2019-01-18T08:21:51.784Z,80.36
2019-01-18T08:31:53.377Z,78.72
2019-01-18T08:41:55.084Z,78.70
2019-01-18T08:51:56.577Z,77.96
2019-01-18T09:01:58.285Z,76.95
2019-01-18T09:11:59.983Z,75.61
2019-01-18T09:22:01.588Z,74.51
2019-01-18T09:32:03.600Z,72.31
2019-01-18T09:42:05.305Z,69.96
2019-01-18T09:52:06.884Z,70.16
2019-01-18T10:02:08.929Z,69.70
2019-01-18T10:12:10.721Z,67.83
2019-01-18T10:22:12.629Z,67.57
2019-01-18T10:32:14.129Z,66.99
2019-01-18T10:42:15.938Z,65.97
2019-01-18T10:52:17.449Z,63.70
2019-01-18T11:02:19.250Z,61.17
2019-01-18T11:12:20.840Z,59.14
2019-01-18T11:22:22.446Z,59.21
2019-01-18T11:32:23.948Z,54.64
2019-01-18T11:42:25.645Z,49.28
2019-01-18T11:52:27.249Z,50.26
2019-01-18T12:36:02.209Z,59.00
2019-01-18T12:46:03.885Z,59.65
2019-01-18T12:56:05.678Z,60.39
2019-01-18T13:06:07.461Z,60.59
2019-01-18T13:16:17.113Z,62.93
2019-01-18T13:26:18.548Z,63.92
2019-01-18T13:36:20.037Z,62.47
2019-01-18T13:46:21.682Z,63.62
2019-01-18T13:56:23.320Z,66.01
2019-01-18T14:06:24.860Z,70.83
2019-01-18T14:16:26.540Z,71.89
2019-01-18T14:26:28.020Z,72.62
2019-01-18T14:36:29.550Z,72.61
2019-01-18T14:46:30.986Z,71.09
2019-01-18T14:56:32.561Z,68.35
2019-01-18T15:06:34.050Z,66.83
2019-01-18T15:16:35.493Z,67.36
2019-01-18T15:26:37.087Z,67.03
2019-01-18T15:36:38.525Z,66.65
2019-01-18T15:46:39.966Z,66.82
2019-01-18T15:56:41.640Z,68.38
2019-01-18T16:06:43.162Z,68.59
2019-01-18T16:16:44.900Z,69.38
2019-01-18T16:26:46.411Z,70.11
2019-01-18T16:36:48.053Z,70.78
2019-01-18T16:46:49.502Z,70.79
2019-01-18T16:56:50.995Z,71.74
2019-01-18T17:06:52.581Z,71.38
2019-01-18T17:16:54.074Z,71.92
2019-01-18T17:26:55.517Z,71.42
2019-01-18T17:36:56.997Z,71.58
2019-01-18T17:47:13.046Z,71.50
2019-01-18T17:57:36.698Z,71.78
2019-01-18T18:07:55.482Z,72.02
2019-01-18T18:18:05.928Z,69.59
2019-01-18T18:28:25.243Z,67.46
2019-01-18T18:38:50.908Z,67.19
2019-01-18T18:49:18.816Z,65.30
2019-01-18T18:59:35.170Z,65.08
2019-01-18T19:10:13.928Z,64.50
2019-01-18T19:20:23.869Z,64.22
2019-01-18T19:31:11.206Z,64.26
2019-01-18T19:41:26.950Z,64.25
2019-01-18T19:51:51.911Z,65.64
2019-01-18T20:02:15.697Z,64.61
2019-01-18T20:12:22.930Z,63.31
2019-01-18T20:22:47.952Z,61.58
2019-01-18T20:33:01.277Z,61.40
2019-01-18T20:43:28.144Z,62.11
2019-01-18T20:54:14.850Z,61.50
2019-01-18T21:04:36.597Z,61.00
2019-01-18T21:14:56.090Z,61.08
2019-01-18T21:25:31.694Z,62.16
2019-01-18T21:35:59.739Z,60.02
2019-01-18T21:46:31.041Z,61.08
2019-01-18T21:56:38.157Z,62.71
2019-01-18T22:06:57.668Z,63.17
2019-01-18T22:17:32.017Z,64.28
2019-01-18T22:27:47.741Z,63.52
2019-01-18T22:38:34.766Z,61.36
2019-01-18T22:49:14.874Z,62.20
2019-01-18T22:59:55.024Z,66.24
2019-01-18T23:10:31.134Z,66.11
2019-01-18T23:20:58.362Z,64.89
2019-01-18T23:31:22.666Z,62.03
2019-01-18T23:41:38.830Z,60.40
2019-01-18T23:51:52.352Z,59.41
